Terminal Aerodrome Forecast
Issued by NWS Sioux Falls, SD

Home | Current Version | Previous Version | Graphics & Text | Print | Product List | Glossary On
Versions: 1 2 3 4 5 6 7 8 9 10 11 12 13 14 15 16 17 18 19
000
FTUS43 KFSD 201130
TAFFSD
TAF
KFSD 201130Z 2012/2112 15007KT 1 1/2SM -DZ BR OVC003
     FM201600 16009KT 3SM BR OVC005
     FM202100 15008KT 5SM -DZ BR OVC007
     FM210300 13008KT 2SM -RA BR OVC003
     FM211100 10004KT 3/4SM BR OVC002=

USA.gov is the U.S. government's official web portal to all federal, state and local government web resources and services.